createdAt,value
2023-02-14T00:14:45.145Z,11.00
2023-02-14T00:17:11.738Z,10.50
2023-02-14T00:19:38.340Z,10.60
2023-02-14T00:22:05.392Z,11.53
2023-02-14T00:24:32.408Z,11.27
2023-02-14T00:26:59.203Z,11.37
2023-02-14T00:29:29.627Z,11.60
2023-02-14T00:31:56.488Z,11.57
2023-02-14T00:34:23.272Z,11.37
2023-02-14T00:36:50.672Z,11.27
2023-02-14T00:39:18.034Z,10.47
2023-02-14T00:41:44.889Z,11.73
2023-02-14T00:44:13.017Z,10.87
2023-02-14T00:46:40.045Z,11.60
2023-02-14T00:49:06.879Z,11.13
2023-02-14T00:51:33.470Z,11.00
2023-02-14T00:54:00.003Z,12.10
2023-02-14T00:56:26.633Z,11.27
2023-02-14T00:58:53.213Z,11.30
2023-02-14T01:01:20.092Z,11.40
2023-02-14T01:03:47.556Z,11.27
2023-02-14T01:06:14.453Z,11.23
2023-02-14T01:08:41.022Z,11.20
2023-02-14T01:11:08.628Z,10.83
2023-02-14T01:13:35.245Z,11.47
2023-02-14T01:16:06.939Z,11.27
2023-02-14T01:21:14.524Z,11.73
2023-02-14T01:23:42.162Z,11.67
2023-02-14T01:26:09.971Z,11.57
2023-02-14T01:28:37.039Z,11.70
2023-02-14T01:31:24.801Z,11.20
2023-02-14T01:33:52.845Z,11.43
2023-02-14T01:36:24.945Z,11.73
2023-02-14T01:38:54.458Z,11.70
2023-02-14T01:41:21.976Z,11.27
2023-02-14T01:43:50.150Z,12.27
2023-02-14T01:46:16.794Z,11.90
2023-02-14T01:48:43.483Z,12.40
2023-02-14T01:51:10.238Z,11.43
2023-02-14T01:53:37.184Z,11.90
2023-02-14T01:56:10.078Z,11.30
2023-02-14T01:58:39.698Z,11.47
2023-02-14T02:01:06.909Z,11.87
2023-02-14T02:03:42.558Z,11.80
2023-02-14T02:06:13.750Z,11.70
2023-02-14T02:08:49.251Z,11.70
2023-02-14T02:11:15.845Z,11.27
2023-02-14T02:13:42.358Z,12.13
2023-02-14T02:16:40.085Z,11.10
2023-02-14T02:19:21.574Z,11.77
2023-02-14T02:22:09.407Z,11.97
2023-02-14T02:24:46.610Z,11.30
2023-02-14T02:27:48.430Z,11.40
2023-02-14T02:30:37.636Z,11.43
2023-02-14T02:33:38.849Z,12.30
2023-02-14T02:36:13.933Z,12.23
2023-02-14T02:38:59.214Z,11.37
2023-02-14T02:41:44.016Z,10.80
2023-02-14T02:44:31.871Z,11.10
2023-02-14T02:47:22.508Z,11.63
2023-02-14T02:50:17.358Z,11.87
2023-02-14T02:53:06.533Z,11.87
2023-02-14T02:55:59.444Z,11.23
2023-02-14T02:58:33.179Z,11.37
2023-02-14T03:01:03.596Z,11.53
2023-02-14T03:03:51.882Z,11.33
2023-02-14T03:06:18.498Z,10.70
2023-02-14T03:08:45.062Z,11.53
2023-02-14T03:11:13.527Z,10.40
2023-02-14T03:13:43.794Z,11.07
2023-02-14T03:20:05.269Z,10.70
2023-02-14T03:22:38.618Z,11.40
2023-02-14T03:25:11.298Z,11.20
2023-02-14T03:27:44.970Z,11.20
2023-02-14T03:30:28.434Z,11.40
2023-02-14T03:33:03.082Z,11.30
2023-02-14T03:35:40.484Z,11.00
2023-02-14T03:38:16.259Z,11.47
2023-02-14T03:40:49.593Z,10.83
2023-02-14T03:43:32.501Z,10.80
2023-02-14T03:46:12.365Z,10.93
2023-02-14T03:48:40.901Z,10.60
2023-02-14T03:51:10.890Z,10.57
2023-02-14T03:53:43.804Z,10.50
2023-02-14T03:56:58.102Z,11.37
2023-02-14T03:59:28.638Z,11.10
2023-02-14T04:02:17.216Z,10.13
2023-02-14T04:04:46.690Z,10.70
2023-02-14T04:07:15.869Z,10.43
2023-02-14T04:09:42.961Z,11.57
2023-02-14T04:12:09.833Z,11.50
2023-02-14T04:14:36.653Z,11.13
2023-02-14T04:17:21.995Z,10.70
2023-02-14T04:19:48.557Z,10.83
2023-02-14T04:22:15.512Z,11.13
2023-02-14T04:24:42.033Z,10.50
2023-02-14T04:27:11.631Z,11.37
2023-02-14T04:29:48.050Z,10.83
2023-02-14T04:32:20.818Z,11.27
2023-02-14T04:34:48.262Z,11.57
2023-02-14T04:37:17.138Z,11.37
2023-02-14T04:39:43.832Z,11.23
2023-02-14T04:42:10.336Z,11.20
2023-02-14T04:44:38.430Z,10.70
2023-02-14T04:47:05.584Z,10.50
2023-02-14T04:49:32.145Z,11.03
2023-02-14T04:51:59.064Z,11.07
2023-02-14T04:54:25.881Z,10.50
2023-02-14T04:56:52.460Z,10.77
2023-02-14T04:59:19.037Z,11.80
2023-02-14T05:01:45.711Z,10.87
2023-02-14T05:04:12.380Z,11.33
2023-02-14T05:06:38.901Z,10.97
2023-02-14T05:09:05.436Z,11.53
2023-02-14T05:11:32.034Z,11.30
2023-02-14T05:13:58.544Z,11.17
2023-02-14T05:16:25.482Z,10.67
2023-02-14T05:18:52.130Z,11.00
2023-02-14T05:21:18.770Z,10.60
2023-02-14T05:23:45.412Z,10.50
2023-02-14T05:26:11.985Z,10.40
2023-02-14T05:28:41.214Z,10.97
2023-02-14T05:31:08.640Z,10.60
2023-02-14T05:33:35.557Z,10.70
2023-02-14T05:36:02.870Z,11.17
2023-02-14T05:41:08.921Z,10.73
2023-02-14T05:43:35.480Z,11.07
2023-02-14T05:46:02.178Z,11.37
2023-02-14T05:48:28.810Z,10.97
2023-02-14T05:50:55.415Z,11.27
2023-02-14T05:53:21.977Z,11.53
2023-02-14T05:55:48.505Z,11.33
2023-02-14T05:58:15.296Z,12.27
2023-02-14T06:00:41.859Z,11.07
2023-02-14T06:03:08.883Z,11.40
2023-02-14T06:08:13.389Z,11.10
2023-02-14T06:10:39.894Z,11.23
2023-02-14T06:13:09.107Z,10.93
2023-02-14T06:15:36.858Z,10.53
2023-02-14T06:18:04.968Z,11.97
2023-02-14T06:20:31.589Z,10.67
2023-02-14T06:22:58.213Z,11.30
2023-02-14T06:25:25.087Z,11.30
2023-02-14T06:27:51.838Z,11.03
2023-02-14T06:30:18.767Z,11.97
2023-02-14T06:32:45.444Z,11.13
2023-02-14T06:35:11.971Z,10.40
2023-02-14T06:37:38.929Z,11.13
2023-02-14T06:40:06.176Z,11.07
2023-02-14T06:42:32.788Z,11.43
2023-02-14T06:44:59.309Z,11.47
2023-02-14T06:47:25.870Z,11.20
2023-02-14T06:49:52.492Z,11.00
2023-02-14T06:54:56.938Z,10.77
2023-02-14T06:57:23.466Z,11.30
2023-02-14T06:59:49.999Z,12.03
2023-02-14T07:02:16.573Z,11.30
2023-02-14T07:04:43.131Z,11.30
2023-02-14T07:07:09.702Z,11.37
2023-02-14T07:09:36.414Z,10.53
2023-02-14T07:12:03.019Z,11.40
2023-02-14T07:14:29.644Z,11.03
2023-02-14T07:16:56.300Z,11.77
2023-02-14T07:19:22.881Z,11.60
2023-02-14T07:24:20.704Z,10.80
2023-02-14T07:26:47.252Z,12.17
2023-02-14T07:29:13.759Z,11.73
2023-02-14T07:31:40.430Z,11.50
2023-02-14T07:34:07.100Z,9.93
2023-02-14T07:36:34.254Z,11.30
2023-02-14T07:39:00.770Z,11.10
2023-02-14T07:41:27.417Z,11.27
2023-02-14T07:43:53.924Z,10.97
2023-02-14T07:46:20.577Z,11.43
2023-02-14T07:48:48.348Z,10.93
2023-02-14T07:51:14.919Z,11.37
2023-02-14T07:53:41.509Z,11.67
2023-02-14T07:58:40.733Z,10.73
2023-02-14T08:01:07.330Z,11.60
2023-02-14T08:03:33.872Z,11.70
2023-02-14T08:06:00.406Z,11.90
2023-02-14T08:08:28.703Z,11.83
2023-02-14T08:10:55.368Z,11.83
2023-02-14T08:13:22.055Z,11.87
2023-02-14T08:16:07.477Z,12.47
2023-02-14T08:18:39.897Z,11.70
2023-02-14T08:23:41.293Z,11.50
2023-02-14T08:26:07.885Z,11.57
2023-02-14T08:28:35.417Z,12.13
2023-02-14T08:31:04.399Z,10.97
2023-02-14T08:33:31.183Z,11.13
2023-02-14T08:35:57.760Z,11.87
2023-02-14T08:38:24.521Z,11.07
2023-02-14T08:40:51.102Z,11.87
2023-02-14T08:43:17.641Z,12.50
2023-02-14T08:45:44.477Z,11.50
2023-02-14T08:48:12.853Z,11.73
2023-02-14T08:50:40.366Z,11.50
2023-02-14T08:53:09.713Z,11.93
2023-02-14T08:55:37.125Z,11.33
2023-02-14T08:58:04.297Z,11.63
2023-02-14T09:00:31.910Z,11.97
2023-02-14T09:02:58.918Z,11.63
2023-02-14T09:05:26.592Z,11.20
2023-02-14T09:07:56.016Z,11.97
2023-02-14T09:10:23.701Z,11.93
2023-02-14T09:12:50.429Z,11.63
2023-02-14T09:15:17.156Z,11.07
2023-02-14T09:17:43.995Z,11.30
2023-02-14T09:20:13.859Z,12.00
2023-02-14T09:22:40.484Z,11.80
2023-02-14T09:25:07.320Z,11.57
2023-02-14T09:27:33.874Z,11.63
2023-02-14T09:30:00.524Z,11.77
2023-02-14T09:32:27.405Z,11.63
2023-02-14T09:34:54.009Z,11.60
2023-02-14T09:40:15.808Z,12.30
2023-02-14T09:43:03.745Z,12.73
2023-02-14T09:45:33.480Z,12.83
2023-02-14T09:48:05.845Z,12.47
2023-02-14T09:53:40.716Z,11.23
2023-02-14T09:56:10.426Z,11.70
2023-02-14T09:58:40.242Z,11.37
2023-02-14T10:01:22.257Z,12.13
2023-02-14T10:04:25.688Z,11.83
2023-02-14T10:07:09.406Z,13.63
2023-02-14T10:09:52.321Z,11.83
2023-02-14T10:12:34.165Z,11.13
2023-02-14T10:15:08.061Z,12.20
2023-02-14T10:17:44.929Z,11.50
2023-02-14T10:22:57.882Z,12.17
2023-02-14T10:25:29.288Z,12.10
2023-02-14T10:27:58.880Z,12.57
2023-02-14T10:30:26.129Z,11.97
2023-02-14T10:36:09.144Z,12.10
2023-02-14T10:38:57.758Z,11.83
2023-02-14T10:41:38.013Z,12.00
2023-02-14T10:44:30.745Z,12.80
2023-02-14T10:47:13.292Z,12.30
2023-02-14T10:49:59.345Z,11.90
2023-02-14T10:52:29.335Z,12.40
2023-02-14T10:55:00.165Z,12.17
2023-02-14T10:57:34.873Z,11.80
2023-02-14T11:00:03.269Z,11.87
2023-02-14T11:02:40.431Z,11.63
2023-02-14T11:05:08.871Z,11.67
2023-02-14T11:07:35.380Z,12.83
2023-02-14T11:12:39.933Z,11.87
2023-02-14T11:15:15.491Z,12.37
2023-02-14T11:17:42.881Z,12.40
2023-02-14T11:20:18.684Z,12.17
2023-02-14T11:22:45.617Z,12.10
2023-02-14T11:25:21.447Z,12.70
2023-02-14T11:27:51.957Z,11.80
2023-02-14T11:30:30.654Z,12.40
2023-02-14T11:35:34.682Z,12.40
2023-02-14T11:38:04.420Z,12.10
2023-02-14T11:40:37.834Z,11.57
2023-02-14T11:43:16.083Z,11.43
2023-02-14T11:48:37.123Z,11.87
2023-02-14T11:51:10.904Z,12.40
2023-02-14T11:53:46.508Z,12.97
2023-02-14T11:56:14.364Z,12.90
2023-02-14T11:58:55.614Z,12.27
2023-02-14T12:01:32.198Z,11.77
2023-02-14T12:04:05.223Z,12.00
2023-02-14T12:06:35.307Z,12.43
2023-02-14T12:09:11.976Z,12.87
2023-02-14T12:11:39.258Z,12.73
2023-02-14T12:14:05.940Z,11.93
2023-02-14T12:16:48.931Z,11.37
2023-02-14T12:19:26.941Z,12.87
2023-02-14T12:21:59.813Z,12.00
2023-02-14T12:24:38.458Z,13.23
2023-02-14T12:29:59.961Z,12.37
2023-02-14T12:32:29.484Z,12.70
2023-02-14T12:35:16.320Z,12.00
2023-02-14T12:38:23.938Z,12.23
2023-02-14T12:41:10.979Z,13.13
2023-02-14T12:43:53.488Z,12.33
2023-02-14T12:46:58.979Z,12.40
2023-02-14T12:49:54.808Z,12.53
2023-02-14T12:52:32.063Z,11.53
2023-02-14T12:55:27.324Z,11.47
2023-02-14T12:58:15.435Z,12.07
2023-02-14T13:00:53.436Z,12.23
2023-02-14T13:03:25.940Z,11.53
2023-02-14T13:06:15.032Z,11.43
2023-02-14T13:09:02.092Z,11.80
2023-02-14T13:12:05.773Z,11.73
2023-02-14T13:14:58.212Z,11.30
2023-02-14T13:17:49.199Z,11.47
2023-02-14T13:20:37.004Z,11.17
2023-02-14T13:23:12.613Z,11.27
2023-02-14T13:25:50.042Z,11.60
2023-02-14T13:28:18.643Z,11.20
2023-02-14T13:30:45.586Z,11.90
2023-02-14T13:33:25.014Z,11.77
2023-02-14T13:35:55.513Z,12.17
2023-02-14T13:38:24.010Z,11.73
2023-02-14T13:40:52.269Z,11.73
2023-02-14T13:43:45.179Z,12.17
2023-02-14T13:48:56.496Z,12.27
2023-02-14T13:51:47.354Z,13.00
2023-02-14T13:54:37.713Z,12.27
2023-02-14T13:57:31.678Z,11.67
2023-02-14T14:00:16.454Z,12.23
2023-02-14T14:02:54.071Z,12.30
2023-02-14T14:05:29.711Z,12.30
2023-02-14T14:08:20.832Z,11.97
2023-02-14T14:10:56.253Z,12.27
2023-02-14T14:13:40.926Z,11.47
2023-02-14T14:16:28.679Z,12.50
2023-02-14T14:19:04.786Z,12.53
2023-02-14T14:21:34.463Z,12.43
2023-02-14T14:24:24.049Z,12.63
2023-02-14T14:27:15.352Z,12.23
2023-02-14T14:29:48.376Z,12.33
2023-02-14T14:35:01.200Z,12.27
2023-02-14T14:37:31.050Z,12.30
2023-02-14T14:40:00.250Z,12.80
2023-02-14T14:42:30.950Z,13.13
2023-02-14T14:45:01.828Z,12.33
2023-02-14T14:47:34.881Z,12.27
2023-02-14T14:50:07.610Z,13.03
2023-02-14T14:52:38.404Z,13.40
2023-02-14T14:55:07.715Z,13.60
2023-02-14T14:57:36.726Z,12.93
2023-02-14T15:00:24.227Z,13.53
2023-02-14T15:03:14.870Z,13.00
2023-02-14T15:05:50.312Z,13.37
2023-02-14T15:08:31.513Z,12.80
2023-02-14T15:11:34.646Z,13.17
2023-02-14T15:14:03.346Z,12.37
2023-02-14T15:19:16.265Z,14.40
2023-02-14T15:21:44.693Z,12.90
2023-02-14T15:24:14.769Z,12.87
2023-02-14T15:26:45.007Z,12.33
2023-02-14T15:29:26.983Z,12.93
2023-02-14T15:31:54.703Z,12.47
2023-02-14T15:34:25.710Z,12.17
2023-02-14T15:36:57.681Z,12.53
2023-02-14T15:39:30.222Z,12.60
2023-02-14T15:41:56.786Z,12.90
2023-02-14T15:47:02.163Z,12.37
2023-02-14T15:49:37.923Z,12.53
2023-02-14T15:52:05.777Z,12.67
2023-02-14T15:54:41.473Z,12.03
2023-02-14T15:57:20.922Z,12.00
2023-02-14T15:59:48.704Z,12.67
2023-02-14T16:02:37.794Z,13.07
2023-02-14T16:05:22.242Z,13.70
2023-02-14T16:08:22.973Z,12.00
2023-02-14T16:11:15.915Z,11.93
2023-02-14T16:13:45.004Z,13.30
2023-02-14T16:18:50.497Z,13.70
2023-02-14T16:21:33.398Z,12.60
2023-02-14T16:24:11.986Z,12.50
2023-02-14T16:26:41.190Z,12.37
2023-02-14T16:29:10.746Z,12.73
2023-02-14T16:32:06.191Z,7.67
2023-02-14T16:34:32.867Z,9.80
2023-02-14T16:37:07.865Z,12.17
2023-02-14T16:39:35.415Z,12.53
2023-02-14T16:42:03.630Z,13.03
2023-02-14T16:44:31.076Z,12.07
2023-02-14T16:46:57.698Z,13.37
2023-02-14T16:49:24.721Z,13.17
2023-02-14T16:51:52.363Z,12.47
2023-02-14T16:54:21.505Z,12.57
2023-02-14T16:57:00.189Z,13.60
2023-02-14T16:59:26.870Z,11.87
2023-02-14T17:01:53.997Z,13.70
2023-02-14T17:04:21.229Z,13.90
2023-02-14T17:06:53.803Z,14.17
2023-02-14T17:09:25.656Z,13.17
2023-02-14T17:11:54.432Z,14.57
2023-02-14T17:14:25.692Z,14.10
2023-02-14T17:16:52.786Z,14.30
2023-02-14T17:19:19.505Z,13.90
2023-02-14T17:21:46.322Z,13.87
2023-02-14T17:24:12.834Z,14.10
2023-02-14T17:26:39.355Z,14.33
2023-02-14T17:29:06.969Z,14.50
2023-02-14T17:31:35.956Z,14.90
2023-02-14T17:36:41.498Z,23.63
2023-02-14T17:39:08.118Z,14.13
2023-02-14T17:41:34.701Z,21.03
2023-02-14T17:44:01.431Z,21.87
2023-02-14T17:46:29.345Z,16.20
2023-02-14T17:48:57.172Z,22.20
2023-02-14T17:51:24.809Z,16.10
2023-02-14T17:53:51.464Z,15.90
2023-02-14T17:56:23.738Z,16.43
2023-02-14T17:58:52.641Z,15.77
2023-02-14T18:01:21.837Z,15.90
2023-02-14T18:03:48.887Z,13.93
2023-02-14T18:08:51.887Z,14.50
2023-02-14T18:11:20.114Z,15.50
2023-02-14T18:16:19.375Z,15.00
2023-02-14T18:21:21.358Z,15.57
2023-02-14T18:23:48.170Z,15.83
2023-02-14T18:26:16.574Z,15.33
2023-02-14T18:28:43.096Z,14.70
2023-02-14T18:33:52.387Z,14.93
2023-02-14T18:36:24.306Z,15.90
2023-02-14T18:38:51.059Z,15.37
2023-02-14T18:41:19.466Z,15.67
2023-02-14T18:43:46.202Z,14.77
2023-02-14T18:46:18.187Z,14.70
2023-02-14T18:48:45.383Z,13.87
2023-02-14T18:51:23.818Z,15.00
2023-02-14T18:53:55.025Z,14.50
2023-02-14T18:56:25.661Z,14.70
2023-02-14T18:59:02.772Z,15.20
2023-02-14T19:01:32.251Z,15.03
2023-02-14T19:04:00.468Z,33.80
2023-02-14T19:06:29.986Z,32.10
2023-02-14T19:08:57.595Z,19.93
2023-02-14T19:11:27.408Z,15.83
2023-02-14T19:13:56.700Z,51.40
2023-02-14T19:16:26.236Z,25.03
2023-02-14T19:18:53.917Z,19.67
2023-02-14T19:21:23.185Z,15.10
2023-02-14T19:23:52.143Z,16.50
2023-02-14T19:26:21.265Z,14.13
2023-02-14T19:28:49.613Z,13.70
2023-02-14T19:31:16.716Z,14.50
2023-02-14T19:33:45.905Z,14.20
2023-02-14T19:36:14.825Z,14.57
2023-02-14T19:38:43.413Z,13.47
2023-02-14T19:41:24.802Z,15.23
2023-02-14T19:43:51.819Z,14.23
2023-02-14T19:46:20.601Z,14.10
2023-02-14T19:48:48.720Z,14.30
2023-02-14T19:51:21.734Z,14.57
2023-02-14T19:53:49.887Z,14.20
2023-02-14T19:56:21.550Z,14.87
2023-02-14T19:58:49.436Z,13.83
2023-02-14T20:01:25.943Z,14.00
2023-02-14T20:03:53.329Z,14.33
2023-02-14T20:06:23.767Z,13.90
2023-02-14T20:08:50.934Z,14.33
2023-02-14T20:11:29.172Z,15.33
2023-02-14T20:13:56.262Z,14.53
2023-02-14T20:16:25.686Z,14.20
2023-02-14T20:18:53.086Z,14.93
2023-02-14T20:21:28.118Z,15.23
2023-02-14T20:29:04.689Z,14.77
2023-02-14T20:31:33.263Z,14.03
2023-02-14T20:34:00.695Z,14.90
2023-02-14T20:36:27.349Z,15.33
2023-02-14T20:38:58.977Z,14.50
2023-02-14T20:41:26.425Z,14.53
2023-02-14T20:43:53.253Z,15.57
2023-02-14T20:46:20.142Z,15.57
2023-02-14T20:48:46.741Z,15.47
2023-02-14T20:51:19.225Z,15.67
2023-02-14T20:53:46.403Z,15.47
2023-02-14T20:56:14.680Z,13.77
2023-02-14T20:58:41.558Z,14.57
2023-02-14T21:01:11.052Z,14.87
2023-02-14T21:03:38.173Z,15.20
2023-02-14T21:06:06.761Z,14.33
2023-02-14T21:08:33.832Z,15.57
2023-02-14T21:11:00.861Z,15.43
2023-02-14T21:13:27.524Z,15.10
2023-02-14T21:15:54.151Z,14.90
2023-02-14T21:18:20.820Z,15.50
2023-02-14T21:20:47.377Z,15.90
2023-02-14T21:23:13.953Z,15.57
2023-02-14T21:25:40.516Z,14.40
2023-02-14T21:28:07.001Z,15.10
2023-02-14T21:30:33.579Z,15.63
2023-02-14T21:35:31.709Z,14.37
2023-02-14T21:37:58.217Z,15.53
2023-02-14T21:40:24.761Z,15.43
2023-02-14T21:42:51.322Z,14.27
2023-02-14T21:45:36.406Z,15.23
2023-02-14T21:48:21.705Z,15.70
2023-02-14T21:50:48.237Z,14.87
2023-02-14T21:53:14.764Z,15.07
2023-02-14T21:55:42.834Z,14.30
2023-02-14T21:58:09.403Z,16.07
2023-02-14T22:05:47.244Z,14.30
2023-02-14T22:08:13.787Z,14.57
2023-02-14T22:10:40.603Z,14.40
2023-02-14T22:13:07.270Z,14.43
2023-02-14T22:18:07.338Z,14.03
2023-02-14T22:20:33.846Z,13.93
2023-02-14T22:25:38.354Z,13.50
2023-02-14T22:30:36.196Z,12.50
2023-02-14T22:33:02.713Z,13.10
2023-02-14T22:35:29.370Z,12.40
2023-02-14T22:37:56.115Z,12.30
2023-02-14T22:40:22.702Z,12.10
2023-02-14T22:42:49.214Z,11.13
2023-02-14T22:47:53.480Z,11.73
2023-02-14T22:50:20.078Z,11.37
2023-02-14T22:52:46.689Z,12.13
2023-02-14T22:55:13.220Z,11.70
2023-02-14T22:57:39.774Z,10.47
2023-02-14T23:00:11.770Z,10.20
2023-02-14T23:02:39.046Z,10.23
2023-02-14T23:05:05.907Z,10.33
2023-02-14T23:07:32.536Z,10.50
2023-02-14T23:09:59.151Z,10.77
2023-02-14T23:12:44.214Z,10.80
2023-02-14T23:15:29.210Z,10.43
2023-02-14T23:18:14.856Z,10.10
2023-02-14T23:20:59.935Z,10.47
2023-02-14T23:23:31.465Z,10.40
2023-02-14T23:25:58.344Z,10.43
2023-02-14T23:28:25.848Z,10.30
2023-02-14T23:30:52.554Z,10.70
2023-02-14T23:33:19.199Z,10.83
2023-02-14T23:35:45.988Z,10.57
2023-02-14T23:38:12.518Z,10.43
2023-02-14T23:40:57.816Z,10.33
2023-02-14T23:43:27.461Z,10.00
2023-02-14T23:45:54.513Z,10.43
2023-02-14T23:48:21.103Z,10.07
2023-02-14T23:50:47.691Z,10.33
2023-02-14T23:53:15.421Z,9.83
2023-02-14T23:58:13.189Z,10.33
